Aérodrome :
LOGIN :

S'inscrire | Disclaimer

   EN    FR    IT 

 










Légende :    VFR   VFR Marginal   IFR   IFR Intensif   IFR Très Intensif
Visi : 
Plafond : 
>= 8 km
>= 3000ft
5 à 8 km
1000 à 3000 ft
1500m à 5 km
500 à 1000 ft
800 à 1500m
200 à 500 ft
< 800m
< 200 ft
Symboles :   Orages  Brouillard  Fortes neiges  Fortes précipitations  Vent > 20 kt
SIGMETs :   Divers  Orages  Givrage  Turbulence  Onde Orograph.  Cendres Volcan.






- Altitude de l'aérodrome : 1890 ft
- Code IATA : MEK


GMFM - Bassatine

METAR N/A
TAF TAF GMFM
Valide du 09 à 12h jusqu'au 10 à 18h UTC


091100Z 0912/1018 32010KT 9999 SCT020 BKN100
PROB30
TEMPO 0916/0920 -TSRA SCT020 FEW030CB BKN100
BECMG 1002/1004 VRB02KT 6000 BKN016
PROB30
TEMPO 1006/1010 3000 BR SCT010
BECMG 1014/1018 30010KT 9999 SCT020 BKN100



MET'MAP, la Météo Aéronautique d'un coup d'oeil ! - Copyright ORBIFLY Décembre 2007 - Disclaimer

ORBIFLY MET'MAP TEAM :

Programmation & Développement : Alexandra Zaïnal
Sur une idée originale de : Baudouin d'Aumeries
Assistance à la programmation : Marc-Olivier Méhu
Soutien technique & logistique : Manuel Goepfert

Contact : metmap@orbifly.com




SOURCES & CREDITS :

   NOAA